Time;durP1;ratioP1;P1;durP2;ratioP2;P2;SDS_P1;SDS_P2;PMS_P1;PMS_P2;Temp;Humidity;BMP_temperature;BMP_pressure;BME280_temperature;BME280_humidity;BME280_pressure;Samples;Min_cycle;Max_cycle;Signal;HPM_P1;HPM_P2
2022/11/28 00:00:01;;;;;;;2.38;1.00;;;;;;;4.13;74.24;102748.81;5011430;28;20076;-74
2022/11/28 00:02:28;;;;;;;1.73;0.98;;;;;;;4.10;73.83;102748.69;5013019;28;20751;-74
2022/11/28 00:04:55;;;;;;;1.17;0.75;;;;;;;4.13;74.11;102746.22;5016777;28;20622;-74
2022/11/28 00:07:22;;;;;;;2.45;0.90;;;;;;;4.14;74.26;102755.75;5013578;28;20046;-74
2022/11/28 00:09:48;;;;;;;2.05;1.30;;;;;;;4.14;74.61;102742.81;5011804;28;20050;-73
2022/11/28 00:12:15;;;;;;;1.13;1.02;;;;;;;4.13;73.89;102751.41;5010767;28;20041;-74
2022/11/28 00:14:42;;;;;;;0.80;0.75;;;;;;;4.06;74.28;102733.88;5011615;28;20046;-73
2022/11/28 00:17:10;;;;;;;1.10;0.73;;;;;;;4.13;73.91;102746.22;5014470;28;20046;-74
2022/11/28 00:19:37;;;;;;;1.60;0.90;;;;;;;4.13;74.09;102747.94;5007267;28;20050;-75
2022/11/28 00:22:04;;;;;;;2.15;0.95;;;;;;;4.13;73.68;102751.41;5006903;28;20042;-74
2022/11/28 00:24:31;;;;;;;2.80;1.00;;;;;;;4.03;74.33;102736.34;5012493;28;20112;-74
2022/11/28 00:26:57;;;;;;;4.20;0.82;;;;;;;4.12;74.14;102748.75;5012049;28;20049;-74
2022/11/28 00:29:24;;;;;;;2.05;1.50;;;;;;;4.12;73.96;102751.34;5012134;28;20396;-75
2022/11/28 00:31:51;;;;;;;1.40;0.60;;;;;;;4.10;73.76;102743.53;5007231;28;20116;-73
2022/11/28 00:34:19;;;;;;;2.22;0.80;;;;;;;4.11;73.90;102745.28;5007306;28;20050;-76
2022/11/28 00:36:47;;;;;;;1.58;0.82;;;;;;;4.11;73.99;102750.44;5004025;28;20049;-74
2022/11/28 00:39:15;;;;;;;1.30;0.88;;;;;;;4.10;74.06;102743.53;5013833;28;20053;-74
2022/11/28 00:41:42;;;;;;;1.85;0.90;;;;;;;4.10;73.78;102738.34;5007874;28;20057;-74
2022/11/28 00:44:09;;;;;;;1.30;0.70;;;;;;;4.05;74.32;102733.00;5013826;28;20096;-73
2022/11/28 00:46:36;;;;;;;1.25;0.80;;;;;;;4.08;73.93;102737.41;5011594;28;20099;-74
2022/11/28 00:49:03;;;;;;;0.90;0.70;;;;;;;4.10;74.14;102735.78;5010171;28;20049;-75
2022/11/28 00:51:33;;;;;;;1.52;1.10;;;;;;;4.10;74.01;102740.94;5008619;28;20054;-74
2022/11/28 00:54:02;;;;;;;1.25;0.70;;;;;;;4.10;74.12;102740.03;5011445;28;20060;-73
2022/11/28 00:56:32;;;;;;;0.60;0.57;;;;;;;4.09;73.57;102733.97;5005739;28;20050;-74
2022/11/28 00:58:59;;;;;;;1.27;0.60;;;;;;;4.09;73.95;102739.16;5009089;28;20173;-76
2022/11/28 01:01:28;;;;;;;1.08;0.70;;;;;;;3.99;74.14;102718.94;5006234;28;20446;-74
2022/11/28 01:03:57;;;;;;;0.90;0.60;;;;;;;4.03;73.86;102720.81;5010815;28;20059;-73
2022/11/28 01:06:26;;;;;;;1.00;0.80;;;;;;;4.06;73.96;102732.16;5010408;28;20481;-74
2022/11/28 01:08:55;;;;;;;1.02;0.47;;;;;;;4.10;73.83;102732.28;5005433;28;20115;-74
2022/11/28 01:11:22;;;;;;;0.85;0.50;;;;;;;4.09;73.95;102731.41;5009982;28;20046;-74
2022/11/28 01:13:49;;;;;;;0.70;0.70;;;;;;;4.10;74.07;102734.84;5006052;28;20046;-74
2022/11/28 01:16:16;;;;;;;0.45;0.40;;;;;;;4.10;73.82;102725.44;5012241;28;20116;-73
2022/11/28 01:18:43;;;;;;;1.02;0.50;;;;;;;4.10;73.69;102734.84;5010434;28;20541;-75
2022/11/28 01:21:10;;;;;;;0.70;0.40;;;;;;;4.01;73.58;102710.44;5010909;28;20562;-73
2022/11/28 01:23:36;;;;;;;2.35;0.63;;;;;;;4.07;74.19;102722.72;5013050;28;20057;-74
2022/11/28 01:26:09;;;;;;;1.67;0.75;;;;;;;4.10;73.90;102722.84;5009732;28;20054;-74
2022/11/28 01:28:36;;;;;;;2.38;0.75;;;;;;;4.09;73.84;102721.06;5010078;28;20041;-73
2022/11/28 01:31:05;;;;;;;0.80;0.45;;;;;;;4.09;74.21;102718.47;5008447;28;20534;-75
2022/11/28 01:33:32;;;;;;;1.20;0.88;;;;;;;4.08;74.03;102711.53;5007173;28;20081;-74
2022/11/28 01:35:59;;;;;;;1.00;0.50;;;;;;;4.08;74.23;102711.53;5007676;28;20131;-74
2022/11/28 01:38:27;;;;;;;2.20;0.60;;;;;;;4.09;73.79;102705.53;5007498;28;20049;-74
2022/11/28 01:40:54;;;;;;;0.68;0.50;;;;;;;4.09;74.17;102705.53;5006177;28;20046;-74
2022/11/28 01:43:24;;;;;;;1.23;0.40;;;;;;;4.09;74.23;102702.94;5012450;28;20046;-74
2022/11/28 01:45:51;;;;;;;0.45;0.40;;;;;;;4.08;74.20;102701.19;5009866;28;20053;-74
2022/11/28 01:48:23;;;;;;;1.80;0.60;;;;;;;4.09;74.09;102702.06;5008983;28;20033;-74
2022/11/28 01:50:52;;;;;;;0.95;0.50;;;;;;;4.08;74.09;102706.38;5007133;28;20423;-75
2022/11/28 01:53:19;;;;;;;1.00;0.77;;;;;;;4.08;73.76;102706.38;5008869;28;20038;-73
2022/11/28 01:55:53;;;;;;;1.70;0.60;;;;;;;4.01;74.24;102691.41;5006071;28;20062;-74
2022/11/28 01:58:20;;;;;;;1.00;0.60;;;;;;;4.06;73.99;102703.72;5006728;28;20061;-75
2022/11/28 02:00:49;;;;;;;0.85;0.52;;;;;;;4.01;74.09;102694.00;5009402;28;20060;-74
2022/11/28 02:03:22;;;;;;;0.70;0.50;;;;;;;4.09;73.79;102704.66;5010740;28;20416;-74
2022/11/28 02:05:51;;;;;;;0.70;0.60;;;;;;;3.90;73.85;102672.00;5007301;28;20050;-74
2022/11/28 02:08:17;;;;;;;0.77;0.45;;;;;;;4.07;73.80;102707.19;5010666;28;20077;-75
2022/11/28 02:11:04;;;;;;;0.75;0.50;;;;;;;4.08;74.12;102701.19;5008033;28;20600;-73
2022/11/28 02:13:41;;;;;;;0.80;0.60;;;;;;;4.06;73.76;102692.50;5008421;28;20049;-74
2022/11/28 02:16:25;;;;;;;0.93;0.40;;;;;;;4.05;73.90;102695.91;5012797;28;20135;-74
2022/11/28 02:19:07;;;;;;;1.00;0.60;;;;;;;4.05;73.87;102695.91;5007842;28;20100;-74
2022/11/28 02:21:54;;;;;;;0.80;0.50;;;;;;;4.06;74.00;102695.06;5015326;28;20108;-74
2022/11/28 02:24:55;;;;;;;0.60;0.50;;;;;;;4.02;73.74;102688.03;5003959;28;20050;-75
2022/11/28 02:27:51;;;;;;;0.80;0.40;;;;;;;4.03;73.82;102698.41;5010575;28;20062;-75
2022/11/28 02:30:21;;;;;;;0.80;0.60;;;;;;;3.98;73.63;102691.31;5002973;28;20496;-75
2022/11/28 02:33:00;;;;;;;1.02;0.40;;;;;;;4.00;73.99;102692.25;5011015;28;20053;-74
2022/11/28 02:35:33;;;;;;;0.80;0.50;;;;;;;4.00;73.39;102698.31;5008133;28;20056;-74
2022/11/28 02:38:09;;;;;;;0.70;0.60;;;;;;;3.92;73.45;102685.88;5009173;28;20818;-74
2022/11/28 02:40:40;;;;;;;0.88;0.50;;;;;;;3.99;73.91;102691.38;5011621;28;20116;-74
2022/11/28 02:43:17;;;;;;;2.58;0.50;;;;;;;3.99;73.52;102700.84;5014352;28;20116;-73
2022/11/28 02:45:54;;;;;;;1.08;0.45;;;;;;;3.99;73.85;102700.84;5013782;28;20057;-74
2022/11/28 02:48:27;;;;;;;0.65;0.40;;;;;;;3.94;73.92;102697.19;5005195;28;20116;-75
2022/11/28 02:50:59;;;;;;;0.55;0.50;;;;;;;3.95;74.02;102694.66;5012785;28;20053;-74
2022/11/28 02:53:28;;;;;;;0.93;0.50;;;;;;;3.97;73.88;102705.94;5017437;28;20045;-77
2022/11/28 02:55:57;;;;;;;0.65;0.50;;;;;;;3.89;73.96;102688.34;5016619;28;20099;-73
2022/11/28 02:58:24;;;;;;;0.50;0.50;;;;;;;3.96;73.64;102704.19;5016612;28;20586;-74
2022/11/28 03:00:52;;;;;;;0.55;0.40;;;;;;;3.95;73.82;102699.81;5010185;28;20528;-74
2022/11/28 03:03:45;;;;;;;0.68;0.45;;;;;;;3.96;74.19;102690.38;5013285;28;20037;-74
2022/11/28 03:06:20;;;;;;;2.25;0.70;;;;;;;3.95;73.77;102694.66;4980895;28;20484;-74
2022/11/28 03:09:07;;;;;;;3.10;0.90;;;;;;;3.96;73.77;102692.97;5013778;28;20053;-74
2022/11/28 03:11:48;;;;;;;0.75;0.50;;;;;;;3.81;74.20;102673.44;5011771;28;20046;-74
2022/11/28 03:14:24;;;;;;;3.33;0.63;;;;;;;3.96;74.15;102696.44;5010638;28;20634;-74
2022/11/28 03:17:01;;;;;;;0.90;0.40;;;;;;;3.96;73.94;102699.00;5012897;28;20053;-74
2022/11/28 03:19:34;;;;;;;0.63;0.60;;;;;;;3.95;73.99;102705.00;5010092;28;20097;-75
2022/11/28 03:22:10;;;;;;;0.65;0.50;;;;;;;3.97;73.82;102718.00;5015277;28;20048;-74
2022/11/28 03:24:43;;;;;;;0.75;0.50;;;;;;;3.96;74.31;102717.13;5010907;28;20133;-74
2022/11/28 03:27:16;;;;;;;2.15;0.60;;;;;;;3.97;74.21;102720.56;5007793;28;20127;-74
2022/11/28 03:29:46;;;;;;;0.70;0.60;;;;;;;3.96;74.24;102719.69;5015325;28;20053;-75
2022/11/28 03:32:18;;;;;;;1.63;0.80;;;;;;;3.92;74.37;102704.00;5013434;28;20061;-74
2022/11/28 03:34:53;;;;;;;0.55;0.40;;;;;;;3.97;74.04;102712.81;5014895;28;20057;-73
2022/11/28 03:37:24;;;;;;;0.68;0.55;;;;;;;3.96;73.95;102714.53;5011608;28;20064;-73
2022/11/28 03:39:59;;;;;;;0.70;0.40;;;;;;;3.94;74.35;102710.13;5015909;28;20069;-74
2022/11/28 03:42:28;;;;;;;;;;;;;;;3.97;74.01;102723.16;5017135;28;20078;-73
2022/11/28 03:45:01;;;;;;;1.17;0.50;;;;;;;3.94;73.72;102716.16;5012533;28;19926;-74
2022/11/28 03:47:30;;;;;;;1.15;0.70;;;;;;;3.93;73.96;102722.16;5005724;28;20547;-74
2022/11/28 03:50:05;;;;;;;1.40;0.40;;;;;;;3.96;74.43;102731.75;5008714;28;20050;-74
2022/11/28 03:52:36;;;;;;;0.98;0.40;;;;;;;3.90;74.34;102710.78;5010334;28;20112;-74
2022/11/28 03:55:07;;;;;;;0.60;0.50;;;;;;;3.92;74.41;102710.03;5016394;28;20123;-74
2022/11/28 03:57:39;;;;;;;0.70;0.50;;;;;;;3.99;74.75;102717.22;5014711;28;20046;-74
2022/11/28 04:00:07;;;;;;;0.98;0.50;;;;;;;3.96;74.36;102711.06;5022832;28;20068;-75
2022/11/28 04:02:40;;;;;;;1.63;0.47;;;;;;;4.01;74.63;102720.78;5013566;28;20553;-75
2022/11/28 04:05:17;;;;;;;1.15;0.50;;;;;;;4.02;74.54;102719.94;5013783;28;20129;-75
2022/11/28 04:07:48;;;;;;;1.35;0.40;;;;;;;4.02;74.43;102717.34;5015699;28;20062;-76
2022/11/28 04:10:21;;;;;;;3.35;0.65;;;;;;;4.03;74.72;102723.41;5017399;28;20050;-75
2022/11/28 04:12:55;;;;;;;0.82;0.50;;;;;;;3.99;74.66;102716.34;5014474;28;20089;-75
2022/11/28 04:15:30;;;;;;;0.70;0.40;;;;;;;4.05;74.82;102724.34;5011882;28;20130;-76
2022/11/28 04:17:59;;;;;;;;;;;;;;;4.06;74.06;102728.69;5016502;28;20462;-76
2022/11/28 04:20:35;;;;;;;0.77;0.43;;;;;;;4.05;74.52;102726.94;5012317;28;19924;-76
2022/11/28 04:23:08;;;;;;;1.25;0.60;;;;;;;4.03;74.44;102728.56;5018238;28;20423;-75
2022/11/28 04:25:39;;;;;;;1.90;0.47;;;;;;;4.02;74.84;102725.09;5014990;28;20072;-75
2022/11/28 04:28:11;;;;;;;2.15;0.60;;;;;;;4.02;74.46;102722.53;5014642;28;20045;-75
2022/11/28 04:30:38;;;;;;;1.33;0.60;;;;;;;4.09;74.86;102741.75;5010923;28;20053;-75
2022/11/28 04:33:09;;;;;;;2.20;0.85;;;;;;;4.09;74.89;102736.56;5013672;28;20054;-75
2022/11/28 04:35:42;;;;;;;1.98;0.70;;;;;;;4.10;74.51;102740.03;5017269;28;20041;-75
2022/11/28 04:38:12;;;;;;;1.23;0.70;;;;;;;4.11;75.07;102737.53;5014651;28;20048;-75
2022/11/28 04:40:44;;;;;;;3.05;1.02;;;;;;;4.10;74.95;102729.69;5008997;28;20096;-75
2022/11/28 04:43:17;;;;;;;2.58;0.95;;;;;;;4.13;74.86;102735.00;5011480;28;20096;-75
2022/11/28 04:45:47;;;;;;;1.35;0.80;;;;;;;4.14;75.21;102723.84;5010278;28;20087;-75
2022/11/28 04:48:14;;;;;;;1.67;1.00;;;;;;;4.14;74.81;102724.72;5018197;28;20050;-75
2022/11/28 04:50:48;;;;;;;1.10;0.90;;;;;;;4.16;74.79;102724.78;5017046;28;20474;-75
2022/11/28 04:53:22;;;;;;;4.60;1.50;;;;;;;4.17;75.01;102722.25;5013920;28;20042;-75
2022/11/28 04:55:55;;;;;;;2.65;1.30;;;;;;;4.17;75.20;102719.66;5017328;28;20562;-75
2022/11/28 04:58:25;;;;;;;2.13;1.58;;;;;;;4.17;75.33;102722.25;5017465;28;20050;-76
2022/11/28 05:00:54;;;;;;;4.75;1.90;;;;;;;4.18;75.35;102718.81;5014541;28;20050;-77
2022/11/28 05:03:22;;;;;;;2.28;1.98;;;;;;;4.14;75.26;102714.38;5014211;28;20446;-76
2022/11/28 05:05:51;;;;;;;2.13;1.73;;;;;;;4.19;75.41;102730.94;5012056;28;20471;-75
2022/11/28 05:08:20;;;;;;;3.40;1.58;;;;;;;4.21;75.59;102734.50;5010062;28;20483;-75
2022/11/28 05:10:47;;;;;;;3.33;1.90;;;;;;;4.22;75.25;102733.66;5013246;28;20760;-75
2022/11/28 05:13:14;;;;;;;4.82;1.70;;;;;;;4.12;75.56;102716.00;5010389;28;20073;-76
2022/11/28 05:15:40;;;;;;;2.75;1.75;;;;;;;4.23;75.14;102735.41;5014343;28;20049;-75
2022/11/28 05:18:07;;;;;;;5.25;2.05;;;;;;;4.24;75.12;102739.78;5014891;28;20054;-75
2022/11/28 05:20:35;;;;;;;3.85;1.92;;;;;;;4.24;75.23;102732.03;5014786;28;20060;-75
2022/11/28 05:23:03;;;;;;;3.15;2.17;;;;;;;4.25;75.18;102735.47;5005871;28;20093;-76
2022/11/28 05:25:29;;;;;;;8.07;2.72;;;;;;;4.26;75.52;102734.66;5010917;28;20052;-76
2022/11/28 05:27:56;;;;;;;3.38;1.75;;;;;;;4.23;74.92;102732.81;5013216;28;20131;-76
2022/11/28 05:30:23;;;;;;;4.38;2.25;;;;;;;4.27;75.31;102741.59;5013869;28;20053;-76
2022/11/28 05:32:50;;;;;;;3.20;1.77;;;;;;;4.28;75.02;102740.78;5011798;28;20478;-75
2022/11/28 05:35:17;;;;;;;3.17;2.03;;;;;;;4.27;74.85;102737.31;5012897;28;20049;-75
2022/11/28 05:37:43;;;;;;;4.95;2.22;;;;;;;4.28;74.75;102741.66;5012895;28;20081;-75
2022/11/28 05:40:12;;;;;;;3.40;1.77;;;;;;;4.28;74.78;102744.22;5011502;28;20479;-75
2022/11/28 05:42:39;;;;;;;2.25;1.50;;;;;;;4.28;74.80;102740.78;5015522;28;20041;-75
2022/11/28 05:45:06;;;;;;;3.05;1.75;;;;;;;4.28;74.50;102738.19;5015171;28;20084;-75
2022/11/28 05:47:33;;;;;;;2.92;1.33;;;;;;;4.28;74.28;102733.00;5008943;28;20045;-75
2022/11/28 05:50:00;;;;;;;2.38;1.30;;;;;;;4.28;74.38;102733.88;5011548;28;20041;-75
2022/11/28 05:52:31;;;;;;;3.35;1.45;;;;;;;4.33;74.30;102743.56;5015286;28;20042;-77
2022/11/28 05:54:58;;;;;;;2.08;1.27;;;;;;;4.33;74.21;102741.84;5010124;28;20050;-75
2022/11/28 05:57:28;;;;;;;2.05;1.27;;;;;;;4.29;74.32;102738.22;5011188;28;20046;-79
2022/11/28 05:59:56;;;;;;;2.35;1.17;;;;;;;4.31;74.02;102738.31;5014528;28;20042;-79
2022/11/28 06:02:23;;;;;;;3.13;1.75;;;;;;;4.36;73.84;102746.25;5016107;28;20076;-79
2022/11/28 06:04:49;;;;;;;2.38;1.35;;;;;;;4.36;73.99;102752.31;5005867;28;20104;-79
2022/11/28 06:07:17;;;;;;;4.55;1.45;;;;;;;4.39;73.92;102752.41;5017202;28;20112;-78
2022/11/28 06:09:44;;;;;;;4.13;1.50;;;;;;;4.41;74.33;102744.69;5011363;28;20054;-79
2022/11/28 06:12:11;;;;;;;2.15;1.15;;;;;;;4.11;73.55;102701.31;5006316;28;20124;-78
2022/11/28 06:14:39;;;;;;;2.20;1.35;;;;;;;4.43;73.56;102753.41;5014196;28;20137;-78
2022/11/28 06:17:06;;;;;;;2.67;0.98;;;;;;;4.43;73.72;102746.53;5013881;28;20038;-77
2022/11/28 06:19:32;;;;;;;2.63;1.23;;;;;;;4.44;73.71;102745.72;5013790;28;20041;-78
2022/11/28 06:21:59;;;;;;;3.10;1.60;;;;;;;4.43;73.22;102743.06;5017082;28;20046;-80
2022/11/28 06:24:26;;;;;;;2.35;1.30;;;;;;;4.42;73.31;102752.53;5009785;28;20049;-78
2022/11/28 06:26:53;;;;;;;1.73;1.08;;;;;;;4.45;73.44;102750.06;5013287;28;20457;-78
2022/11/28 06:29:20;;;;;;;2.75;1.60;;;;;;;4.45;73.32;102754.38;5008071;28;20129;-78
2022/11/28 06:31:48;;;;;;;2.53;1.77;;;;;;;4.44;73.60;102748.31;5013095;28;20058;-79
2022/11/28 06:34:15;;;;;;;2.42;1.48;;;;;;;4.45;73.78;102755.25;5012722;28;20046;-78
2022/11/28 06:36:43;;;;;;;3.72;1.40;;;;;;;4.45;73.33;102750.06;5013054;28;20041;-78
2022/11/28 06:39:12;;;;;;;3.45;1.60;;;;;;;4.47;73.43;102757.91;5015939;28;20046;-78
2022/11/28 06:41:39;;;;;;;2.03;1.40;;;;;;;4.47;73.47;102752.72;5010014;28;20045;-79
2022/11/28 06:44:05;;;;;;;2.17;1.45;;;;;;;4.47;73.36;102755.31;5016423;28;20038;-78
2022/11/28 06:46:32;;;;;;;2.40;1.80;;;;;;;4.45;73.30;102751.78;5015226;28;20451;-78
2022/11/28 06:49:00;;;;;;;4.43;1.73;;;;;;;4.46;73.34;102748.34;5019420;28;20447;-78
2022/11/28 06:51:27;;;;;;;3.35;1.92;;;;;;;4.45;73.46;102759.53;5010873;28;20054;-78
2022/11/28 06:53:54;;;;;;;6.50;1.92;;;;;;;4.43;73.52;102759.47;5010763;28;20124;-77
2022/11/28 06:56:21;;;;;;;2.45;1.40;;;;;;;4.43;73.58;102762.06;5015230;28;20500;-77
2022/11/28 06:58:54;;;;;;;4.07;1.85;;;;;;;4.41;73.39;102768.91;5014596;28;20571;-78
2022/11/28 07:01:22;;;;;;;3.40;1.48;;;;;;;4.40;73.43;102771.41;5009164;28;20049;-78
2022/11/28 07:03:50;;;;;;;4.35;2.25;;;;;;;4.38;73.66;102766.16;5012627;28;20045;-78
2022/11/28 07:06:19;;;;;;;1.80;1.20;;;;;;;4.39;73.39;102769.66;5012121;28;20389;-78
2022/11/28 07:08:46;;;;;;;5.03;2.40;;;;;;;4.40;73.48;102764.53;5010153;28;20129;-78
2022/11/28 07:11:15;;;;;;;3.60;1.67;;;;;;;4.37;73.73;102763.53;5008204;28;20053;-78
2022/11/28 07:13:44;;;;;;;5.80;2.58;;;;;;;4.31;73.74;102756.41;5011119;28;20047;-78
2022/11/28 07:16:14;;;;;;;4.10;1.70;;;;;;;4.40;73.89;102761.06;5016335;28;20046;-78
2022/11/28 07:18:41;;;;;;;3.40;1.80;;;;;;;4.41;73.44;102766.31;5005773;28;20049;-78
2022/11/28 07:21:08;;;;;;;1.88;1.05;;;;;;;4.41;73.32;102757.63;5009680;28;20053;-77
2022/11/28 07:23:36;;;;;;;1.63;1.10;;;;;;;4.44;73.54;102765.50;5005757;28;21437;-78
2022/11/28 07:26:05;;;;;;;1.67;1.23;;;;;;;4.44;73.13;102760.34;5009783;28;20095;-78
2022/11/28 07:28:32;;;;;;;2.28;1.40;;;;;;;4.45;73.38;102760.41;5019914;28;20050;-78
2022/11/28 07:31:01;;;;;;;1.27;1.13;;;;;;;4.42;73.12;102759.41;5015371;28;20067;-77
2022/11/28 07:33:28;;;;;;;0.98;0.70;;;;;;;4.47;73.03;102766.53;5007064;28;20534;-77
2022/11/28 07:36:00;;;;;;;1.48;0.82;;;;;;;4.26;73.13;102726.88;5019660;28;20116;-77
2022/11/28 07:38:26;;;;;;;3.13;1.00;;;;;;;4.46;72.74;102759.56;5007666;28;20080;-76
2022/11/28 07:40:55;;;;;;;1.70;0.50;;;;;;;4.47;72.54;102769.13;5020182;28;20045;-76
2022/11/28 07:43:21;;;;;;;1.38;0.70;;;;;;;4.47;72.73;102769.13;5015443;28;20096;-74
2022/11/28 07:45:48;;;;;;;1.20;0.70;;;;;;;4.49;72.61;102766.59;5013314;28;20115;-74
2022/11/28 07:48:15;;;;;;;0.80;0.50;;;;;;;4.50;72.55;102765.78;5015867;28;20471;-74
2022/11/28 07:50:41;;;;;;;0.93;0.60;;;;;;;4.45;72.70;102760.41;5016311;28;20103;-74
2022/11/28 07:53:08;;;;;;;1.85;0.60;;;;;;;4.51;72.25;102762.34;5017695;28;20041;-74
2022/11/28 07:55:36;;;;;;;2.05;0.40;;;;;;;4.40;72.42;102748.13;5012261;28;20103;-73
2022/11/28 07:58:04;;;;;;;2.15;0.50;;;;;;;4.52;71.85;102774.47;5006642;28;20133;-73
2022/11/28 08:00:31;;;;;;;1.08;0.55;;;;;;;4.52;71.78;102779.63;5013664;28;20043;-74
2022/11/28 08:02:58;;;;;;;1.83;0.60;;;;;;;4.52;71.90;102777.06;5014634;28;20042;-74
2022/11/28 08:05:25;;;;;;;0.80;0.60;;;;;;;4.51;71.25;102770.13;5017171;28;20119;-74
2022/11/28 08:07:52;;;;;;;1.17;0.40;;;;;;;4.45;71.18;102764.72;5020285;28;20050;-75
2022/11/28 08:10:19;;;;;;;1.33;0.68;;;;;;;4.50;71.18;102773.53;5015752;28;20455;-74
2022/11/28 08:12:46;;;;;;;2.63;0.30;;;;;;;4.51;71.09;102780.47;5016129;28;20049;-73
2022/11/28 08:15:14;;;;;;;0.95;0.52;;;;;;;4.49;70.79;102779.53;5010945;28;20046;-74
2022/11/28 08:17:40;;;;;;;3.50;0.40;;;;;;;4.51;70.81;102781.34;5015717;28;20049;-73
2022/11/28 08:20:08;;;;;;;1.75;0.95;;;;;;;4.51;70.72;102783.06;5014315;28;20107;-73
2022/11/28 08:22:35;;;;;;;1.17;0.57;;;;;;;4.52;70.78;102782.22;5014589;28;20077;-73
2022/11/28 08:25:02;;;;;;;0.80;0.60;;;;;;;4.51;71.04;102775.28;5012121;28;20053;-72
2022/11/28 08:27:29;;;;;;;1.30;0.55;;;;;;;4.53;71.05;102778.84;5013191;28;20458;-73
2022/11/28 08:29:55;;;;;;;0.70;0.50;;;;;;;4.54;70.42;102787.47;5012250;28;20085;-72
2022/11/28 08:32:24;;;;;;;1.60;0.65;;;;;;;4.54;70.59;102784.88;5009324;28;20054;-74
2022/11/28 08:34:51;;;;;;;2.17;0.70;;;;;;;4.55;70.39;102786.66;5005808;28;20400;-74
2022/11/28 08:37:18;;;;;;;3.30;0.88;;;;;;;4.54;69.88;102785.75;5019751;28;20333;-75
2022/11/28 08:39:44;;;;;;;4.18;1.13;;;;;;;4.54;69.95;102784.88;5011474;28;20046;-75
2022/11/28 08:42:11;;;;;;;1.88;0.70;;;;;;;4.45;69.65;102781.13;5013680;28;20128;-74
2022/11/28 08:44:38;;;;;;;0.82;0.57;;;;;;;4.53;69.89;102784.00;5014484;28;20046;-72
2022/11/28 08:47:05;;;;;;;1.40;0.70;;;;;;;4.54;69.64;102779.72;5018320;28;20542;-72
2022/11/28 08:49:33;;;;;;;1.35;0.82;;;;;;;4.51;69.79;102783.94;5010873;28;20045;-72
2022/11/28 08:52:00;;;;;;;1.85;0.98;;;;;;;4.50;69.95;102778.72;5016825;28;20045;-72
2022/11/28 08:54:26;;;;;;;2.03;1.20;;;;;;;4.46;69.92;102776.81;4999561;28;20046;-72
2022/11/28 08:56:53;;;;;;;1.90;0.77;;;;;;;4.54;69.65;102788.34;5014293;28;20045;-73
2022/11/28 08:59:20;;;;;;;2.55;1.20;;;;;;;4.55;69.73;102791.81;5017907;28;20058;-72
2022/11/28 09:01:46;;;;;;;1.52;0.80;;;;;;;4.55;69.75;102797.00;5018314;28;20045;-74
2022/11/28 09:04:13;;;;;;;1.63;0.73;;;;;;;4.55;69.93;102792.69;5011345;28;20454;-73
2022/11/28 09:06:41;;;;;;;1.40;1.00;;;;;;;4.56;69.98;102799.66;5020232;28;20079;-74
2022/11/28 09:09:09;;;;;;;2.88;1.65;;;;;;;4.56;69.94;102797.06;5009022;28;20896;-74
2022/11/28 09:11:35;;;;;;;2.17;1.20;;;;;;;4.55;70.15;102791.81;5014203;28;20144;-74
2022/11/28 09:14:02;;;;;;;1.83;1.20;;;;;;;4.52;70.24;102790.00;5013805;28;20451;-74
2022/11/28 09:16:29;;;;;;;2.22;1.40;;;;;;;4.59;70.21;102804.06;5011913;28;20108;-73
2022/11/28 09:18:58;;;;;;;1.95;1.48;;;;;;;4.56;70.32;102802.25;5010762;28;20665;-73
2022/11/28 09:21:25;;;;;;;2.67;1.67;;;;;;;4.58;70.44;102804.88;5014733;28;20124;-74
2022/11/28 09:23:55;;;;;;;3.38;1.50;;;;;;;4.61;70.45;102805.00;5018415;28;20065;-74
2022/11/28 09:26:24;;;;;;;3.20;0.93;;;;;;;4.60;70.49;102806.69;5013809;28;20100;-74
2022/11/28 09:28:51;;;;;;;2.25;1.38;;;;;;;4.58;70.46;102798.03;5016152;28;20054;-74
2022/11/28 09:31:18;;;;;;;2.88;1.17;;;;;;;4.60;70.32;102798.94;5012187;28;21494;-72
2022/11/28 09:33:46;;;;;;;3.85;1.65;;;;;;;4.52;70.24;102787.41;5012648;28;20075;-74
2022/11/28 09:36:14;;;;;;;6.47;1.92;;;;;;;4.62;70.48;102799.88;5013679;28;20120;-73
2022/11/28 09:38:42;;;;;;;2.20;1.40;;;;;;;4.63;70.59;102799.06;5013851;28;20049;-72
2022/11/28 09:41:33;;;;;;;2.72;1.30;;;;;;;4.64;70.32;102798.25;5019441;28;20103;-74
2022/11/28 09:44:07;;;;;;;2.22;1.38;;;;;;;4.64;70.41;102803.44;5018105;28;20054;-73
2022/11/28 09:46:38;;;;;;;3.30;1.05;;;;;;;4.64;70.63;102803.44;5013831;28;20069;-73
2022/11/28 09:49:17;;;;;;;2.28;1.17;;;;;;;4.65;70.45;102802.59;5014495;28;20499;-73
2022/11/28 09:51:51;;;;;;;4.40;1.30;;;;;;;4.65;70.34;102800.00;5019095;28;20057;-77
2022/11/28 09:54:22;;;;;;;2.28;1.33;;;;;;;4.66;70.25;102809.53;5013238;28;20381;-80
2022/11/28 09:56:51;;;;;;;2.10;1.13;;;;;;;4.66;70.63;102806.94;5010985;28;20542;-77
2022/11/28 09:59:24;;;;;;;2.20;1.13;;;;;;;4.69;70.61;102808.75;5011195;28;20041;-75
2022/11/28 10:02:02;;;;;;;4.32;2.38;;;;;;;4.69;70.14;102807.06;5009093;28;20125;-74
2022/11/28 10:04:37;;;;;;;2.20;1.33;;;;;;;4.69;70.31;102809.63;5017489;28;20099;-73
2022/11/28 10:07:12;;;;;;;2.00;1.00;;;;;;;4.66;70.16;102801.75;5014892;28;20050;-72
2022/11/28 10:09:48;;;;;;;1.92;1.17;;;;;;;4.68;70.27;102810.47;5008350;28;20049;-74
2022/11/28 10:12:27;;;;;;;2.10;1.00;;;;;;;4.68;70.54;102804.41;5012536;28;20654;-74
2022/11/28 10:15:18;;;;;;;3.28;1.23;;;;;;;4.69;70.31;102804.47;5010015;28;20053;-72
2022/11/28 10:17:55;;;;;;;2.65;1.17;;;;;;;4.59;70.03;102791.13;5014798;28;20477;-73
2022/11/28 10:20:24;;;;;;;2.22;1.05;;;;;;;4.65;70.15;102797.41;5010527;28;20129;-73
2022/11/28 10:22:55;;;;;;;1.50;0.95;;;;;;;4.64;69.99;102802.53;5015373;28;20080;-74
2022/11/28 10:25:28;;;;;;;1.15;0.98;;;;;;;4.68;70.12;102813.06;5011633;28;20038;-74
2022/11/28 10:27:57;;;;;;;2.03;1.05;;;;;;;4.67;69.83;102813.91;5011949;28;20104;-73
2022/11/28 10:30:26;;;;;;;2.55;1.10;;;;;;;4.65;70.25;102801.72;5011248;28;20098;-74
2022/11/28 10:33:03;;;;;;;1.35;0.85;;;;;;;4.68;69.94;102807.88;5011840;28;20057;-74
2022/11/28 10:35:39;;;;;;;1.58;1.00;;;;;;;4.68;69.67;102807.88;5016492;28;20050;-75
2022/11/28 10:38:11;;;;;;;2.17;0.82;;;;;;;4.68;69.93;102805.28;5008501;28;20104;-74
2022/11/28 10:40:44;;;;;;;1.73;1.23;;;;;;;4.68;69.85;102807.88;5011185;28;20156;-74
2022/11/28 10:43:30;;;;;;;1.65;0.70;;;;;;;4.68;69.86;102804.41;5012619;28;20049;-75
2022/11/28 10:46:05;;;;;;;2.00;0.70;;;;;;;4.66;69.76;102809.53;5015576;28;20471;-75
2022/11/28 10:48:44;;;;;;;2.10;0.90;;;;;;;4.66;69.70;102806.06;5013208;28;20053;-74
2022/11/28 10:51:25;;;;;;;1.20;0.60;;;;;;;4.66;69.59;102806.94;5009270;28;20045;-74
2022/11/28 10:54:02;;;;;;;4.22;1.75;;;;;;;4.66;69.68;102806.06;5012344;28;20459;-75
2022/11/28 10:56:37;;;;;;;1.90;1.20;;;;;;;4.66;69.72;102811.22;5014835;28;20049;-76
2022/11/28 10:59:17;;;;;;;1.83;1.08;;;;;;;4.67;69.61;102810.44;5013160;28;20050;-75
2022/11/28 11:01:44;;;;;;;1.70;1.00;;;;;;;4.65;69.66;102805.19;5013453;28;20569;-76
2022/11/28 11:04:17;;;;;;;2.38;1.15;;;;;;;4.65;69.72;102807.78;5012579;28;20045;-75
2022/11/28 11:06:53;;;;;;;4.07;1.85;;;;;;;4.66;69.44;102811.22;5011786;28;20108;-75
2022/11/28 11:09:20;;;;;;;2.42;1.13;;;;;;;4.65;69.68;102810.34;5012721;28;20499;-75
2022/11/28 11:11:55;;;;;;;2.03;0.98;;;;;;;4.66;69.83;102811.22;5010356;28;20053;-75
2022/11/28 11:14:34;;;;;;;2.33;1.35;;;;;;;4.67;70.00;102813.91;5005337;28;20826;-76
2022/11/28 11:17:01;;;;;;;2.97;1.50;;;;;;;4.66;69.79;102806.94;5009701;28;20127;-75
2022/11/28 11:19:30;;;;;;;4.03;1.42;;;;;;;4.65;69.92;102804.31;5011194;28;20042;-75
2022/11/28 11:22:04;;;;;;;1.67;1.00;;;;;;;4.67;69.96;102813.91;5012197;28;20468;-75
2022/11/28 11:24:31;;;;;;;2.22;1.30;;;;;;;4.58;69.36;102794.53;5011370;28;20042;-77
2022/11/28 11:27:05;;;;;;;1.70;1.23;;;;;;;4.70;69.73;102813.13;5011467;28;20068;-75
2022/11/28 11:29:35;;;;;;;1.83;1.15;;;;;;;4.70;69.52;102811.44;5014071;28;20108;-75
2022/11/28 11:32:05;;;;;;;5.47;1.05;;;;;;;4.69;69.67;102809.63;5016139;28;20065;-75
2022/11/28 11:34:37;;;;;;;2.83;1.45;;;;;;;4.70;69.77;102803.66;5013711;28;20045;-73
2022/11/28 11:37:20;;;;;;;5.75;1.20;;;;;;;4.71;69.59;102807.13;5011735;28;20038;-77
2022/11/28 11:39:50;;;;;;;3.45;1.27;;;;;;;4.71;69.23;102805.41;5017488;28;20049;-75
2022/11/28 11:42:20;;;;;;;3.10;0.80;;;;;;;4.71;69.47;102805.41;5018535;28;20046;-77
2022/11/28 11:44:49;;;;;;;1.33;0.90;;;;;;;4.71;69.36;102808.00;5017987;28;20057;-77
2022/11/28 11:47:16;;;;;;;1.35;0.90;;;;;;;4.70;69.22;102808.84;5012921;28;20545;-77